sensor_id;sensor_type;location;lat;lon;timestamp;temperature;humidity
44843;DHT22;31884;52.538;13.820;2023-11-21T00:02:18;7.70;99.90
44843;DHT22;31884;52.538;13.820;2023-11-21T00:04:43;7.70;99.90
44843;DHT22;31884;52.538;13.820;2023-11-21T00:07:09;7.70;99.90
44843;DHT22;31884;52.538;13.820;2023-11-21T00:09:34;7.70;99.90
44843;DHT22;31884;52.538;13.820;2023-11-21T00:12:02;7.70;99.90
44843;DHT22;31884;52.538;13.820;2023-11-21T00:14:27;7.60;99.90
44843;DHT22;31884;52.538;13.820;2023-11-21T00:16:53;7.60;99.90
44843;DHT22;31884;52.538;13.820;2023-11-21T00:19:19;7.60;99.90
44843;DHT22;31884;52.538;13.820;2023-11-21T00:21:44;7.60;99.90
44843;DHT22;31884;52.538;13.820;2023-11-21T00:24:11;7.50;99.90
44843;DHT22;31884;52.538;13.820;2023-11-21T00:26:39;7.50;99.90
44843;DHT22;31884;52.538;13.820;2023-11-21T00:29:04;7.50;99.90
44843;DHT22;31884;52.538;13.820;2023-11-21T00:31:34;7.40;99.90
44843;DHT22;31884;52.538;13.820;2023-11-21T00:34:05;7.30;99.90
44843;DHT22;31884;52.538;13.820;2023-11-21T00:36:31;7.20;99.90
44843;DHT22;31884;52.538;13.820;2023-11-21T00:38:57;7.20;99.90
44843;DHT22;31884;52.538;13.820;2023-11-21T00:41:23;7.20;99.90
44843;DHT22;31884;52.538;13.820;2023-11-21T00:43:48;7.10;99.90
44843;DHT22;31884;52.538;13.820;2023-11-21T00:46:14;7.00;99.90
44843;DHT22;31884;52.538;13.820;2023-11-21T00:48:39;7.10;99.90
44843;DHT22;31884;52.538;13.820;2023-11-21T00:51:05;7.00;99.90
44843;DHT22;31884;52.538;13.820;2023-11-21T00:53:31;7.00;99.90
44843;DHT22;31884;52.538;13.820;2023-11-21T00:55:57;6.90;99.90
44843;DHT22;31884;52.538;13.820;2023-11-21T00:58:26;6.80;99.90
44843;DHT22;31884;52.538;13.820;2023-11-21T01:00:51;6.80;99.90
44843;DHT22;31884;52.538;13.820;2023-11-21T01:03:17;6.70;99.90
44843;DHT22;31884;52.538;13.820;2023-11-21T01:05:42;6.70;99.90
44843;DHT22;31884;52.538;13.820;2023-11-21T01:08:08;6.70;99.90
44843;DHT22;31884;52.538;13.820;2023-11-21T01:10:33;6.50;99.90
44843;DHT22;31884;52.538;13.820;2023-11-21T01:13:03;6.50;99.90
44843;DHT22;31884;52.538;13.820;2023-11-21T01:15:30;6.50;99.90
44843;DHT22;31884;52.538;13.820;2023-11-21T01:17:56;6.50;99.90
44843;DHT22;31884;52.538;13.820;2023-11-21T01:20:21;6.40;99.90
44843;DHT22;31884;52.538;13.820;2023-11-21T01:22:47;6.40;99.90
44843;DHT22;31884;52.538;13.820;2023-11-21T01:25:14;6.30;99.90
44843;DHT22;31884;52.538;13.820;2023-11-21T01:27:42;6.40;99.90
44843;DHT22;31884;52.538;13.820;2023-11-21T01:30:08;6.40;99.90
44843;DHT22;31884;52.538;13.820;2023-11-21T01:32:36;6.40;99.90
44843;DHT22;31884;52.538;13.820;2023-11-21T01:35:01;6.30;99.90
44843;DHT22;31884;52.538;13.820;2023-11-21T01:37:27;6.30;99.90
44843;DHT22;31884;52.538;13.820;2023-11-21T01:39:54;6.20;99.90
44843;DHT22;31884;52.538;13.820;2023-11-21T01:42:20;6.20;99.90
44843;DHT22;31884;52.538;13.820;2023-11-21T01:44:46;6.20;99.90
44843;DHT22;31884;52.538;13.820;2023-11-21T01:47:12;6.10;99.90
44843;DHT22;31884;52.538;13.820;2023-11-21T01:49:38;6.10;99.90
44843;DHT22;31884;52.538;13.820;2023-11-21T01:52:04;6.00;99.90
44843;DHT22;31884;52.538;13.820;2023-11-21T01:54:30;6.00;99.90
44843;DHT22;31884;52.538;13.820;2023-11-21T01:56:58;6.00;99.90
44843;DHT22;31884;52.538;13.820;2023-11-21T01:59:33;6.00;99.90
44843;DHT22;31884;52.538;13.820;2023-11-21T02:01:59;6.00;99.90
44843;DHT22;31884;52.538;13.820;2023-11-21T02:04:25;5.90;99.90
44843;DHT22;31884;52.538;13.820;2023-11-21T02:06:50;5.90;99.90
44843;DHT22;31884;52.538;13.820;2023-11-21T02:09:16;5.90;99.90
44843;DHT22;31884;52.538;13.820;2023-11-21T02:11:43;5.90;99.90
44843;DHT22;31884;52.538;13.820;2023-11-21T02:14:09;5.90;99.90
44843;DHT22;31884;52.538;13.820;2023-11-21T02:16:35;5.80;99.90
44843;DHT22;31884;52.538;13.820;2023-11-21T02:19:02;5.80;99.90
44843;DHT22;31884;52.538;13.820;2023-11-21T02:21:29;5.80;99.90
44843;DHT22;31884;52.538;13.820;2023-11-21T02:23:55;5.80;99.90
44843;DHT22;31884;52.538;13.820;2023-11-21T02:26:21;5.80;99.90
44843;DHT22;31884;52.538;13.820;2023-11-21T02:28:46;5.80;99.90
44843;DHT22;31884;52.538;13.820;2023-11-21T02:31:12;5.70;99.90
44843;DHT22;31884;52.538;13.820;2023-11-21T02:33:37;5.70;99.90
44843;DHT22;31884;52.538;13.820;2023-11-21T02:36:03;5.70;99.90
44843;DHT22;31884;52.538;13.820;2023-11-21T02:38:29;5.70;99.90
44843;DHT22;31884;52.538;13.820;2023-11-21T02:40:57;5.80;99.90
44843;DHT22;31884;52.538;13.820;2023-11-21T02:43:22;5.70;99.90
44843;DHT22;31884;52.538;13.820;2023-11-21T02:45:47;5.70;99.90
44843;DHT22;31884;52.538;13.820;2023-11-21T02:48:13;5.70;99.90
44843;DHT22;31884;52.538;13.820;2023-11-21T02:50:39;5.70;99.90
44843;DHT22;31884;52.538;13.820;2023-11-21T02:53:04;5.70;99.90
44843;DHT22;31884;52.538;13.820;2023-11-21T02:55:32;5.70;99.90
44843;DHT22;31884;52.538;13.820;2023-11-21T02:58:01;5.70;99.90
44843;DHT22;31884;52.538;13.820;2023-11-21T03:00:27;5.70;99.90
44843;DHT22;31884;52.538;13.820;2023-11-21T03:02:53;5.60;99.90
44843;DHT22;31884;52.538;13.820;2023-11-21T03:05:19;5.60;99.90
44843;DHT22;31884;52.538;13.820;2023-11-21T03:07:45;5.60;99.90
44843;DHT22;31884;52.538;13.820;2023-11-21T03:10:11;5.60;99.90
44843;DHT22;31884;52.538;13.820;2023-11-21T03:12:37;5.60;99.90
44843;DHT22;31884;52.538;13.820;2023-11-21T03:15:04;5.50;99.90
44843;DHT22;31884;52.538;13.820;2023-11-21T03:17:31;5.50;99.90
44843;DHT22;31884;52.538;13.820;2023-11-21T03:19:56;5.50;99.90
44843;DHT22;31884;52.538;13.820;2023-11-21T03:22:22;5.50;99.90
44843;DHT22;31884;52.538;13.820;2023-11-21T03:24:48;5.50;99.90
44843;DHT22;31884;52.538;13.820;2023-11-21T03:27:14;5.50;99.90
44843;DHT22;31884;52.538;13.820;2023-11-21T03:29:39;5.50;99.90
44843;DHT22;31884;52.538;13.820;2023-11-21T03:32:05;5.40;99.90
44843;DHT22;31884;52.538;13.820;2023-11-21T03:34:32;5.40;99.90
44843;DHT22;31884;52.538;13.820;2023-11-21T03:36:57;5.40;99.90
44843;DHT22;31884;52.538;13.820;2023-11-21T03:39:24;5.40;99.90
44843;DHT22;31884;52.538;13.820;2023-11-21T03:41:51;5.40;99.90
44843;DHT22;31884;52.538;13.820;2023-11-21T03:44:17;5.40;99.90
44843;DHT22;31884;52.538;13.820;2023-11-21T03:46:43;5.30;99.90
44843;DHT22;31884;52.538;13.820;2023-11-21T03:49:09;5.40;99.90
44843;DHT22;31884;52.538;13.820;2023-11-21T03:51:36;5.30;99.90
44843;DHT22;31884;52.538;13.820;2023-11-21T03:54:02;5.30;99.90
44843;DHT22;31884;52.538;13.820;2023-11-21T03:56:28;5.30;99.90
44843;DHT22;31884;52.538;13.820;2023-11-21T03:58:53;5.30;99.90
44843;DHT22;31884;52.538;13.820;2023-11-21T04:01:24;5.20;99.90
44843;DHT22;31884;52.538;13.820;2023-11-21T04:03:50;5.20;99.90
44843;DHT22;31884;52.538;13.820;2023-11-21T04:06:16;5.10;99.90
44843;DHT22;31884;52.538;13.820;2023-11-21T04:08:43;5.10;99.90
44843;DHT22;31884;52.538;13.820;2023-11-21T04:11:09;5.00;99.90
44843;DHT22;31884;52.538;13.820;2023-11-21T04:13:37;5.00;99.90
44843;DHT22;31884;52.538;13.820;2023-11-21T04:16:04;4.90;99.90
44843;DHT22;31884;52.538;13.820;2023-11-21T04:18:30;4.90;99.90
44843;DHT22;31884;52.538;13.820;2023-11-21T04:20:55;4.80;99.90
44843;DHT22;31884;52.538;13.820;2023-11-21T04:23:21;4.80;99.90
44843;DHT22;31884;52.538;13.820;2023-11-21T04:25:46;4.70;99.90
44843;DHT22;31884;52.538;13.820;2023-11-21T04:28:12;4.70;99.90
44843;DHT22;31884;52.538;13.820;2023-11-21T04:30:37;4.70;99.90
44843;DHT22;31884;52.538;13.820;2023-11-21T04:33:04;4.60;99.90
44843;DHT22;31884;52.538;13.820;2023-11-21T04:35:30;4.60;99.90
44843;DHT22;31884;52.538;13.820;2023-11-21T04:37:55;4.60;99.90
44843;DHT22;31884;52.538;13.820;2023-11-21T04:40:22;4.60;99.90
44843;DHT22;31884;52.538;13.820;2023-11-21T04:42:48;4.60;99.90
44843;DHT22;31884;52.538;13.820;2023-11-21T04:45:13;4.50;99.90
44843;DHT22;31884;52.538;13.820;2023-11-21T04:47:39;4.50;99.90
44843;DHT22;31884;52.538;13.820;2023-11-21T04:50:05;4.50;99.90
44843;DHT22;31884;52.538;13.820;2023-11-21T04:52:31;4.50;99.90
44843;DHT22;31884;52.538;13.820;2023-11-21T04:54:58;4.50;99.90
44843;DHT22;31884;52.538;13.820;2023-11-21T04:57:24;4.50;99.90
44843;DHT22;31884;52.538;13.820;2023-11-21T04:59:49;4.50;99.90
44843;DHT22;31884;52.538;13.820;2023-11-21T05:02:15;4.50;99.90
44843;DHT22;31884;52.538;13.820;2023-11-21T05:04:41;4.50;99.90
44843;DHT22;31884;52.538;13.820;2023-11-21T05:07:08;4.50;99.90
44843;DHT22;31884;52.538;13.820;2023-11-21T05:09:33;4.40;99.90
44843;DHT22;31884;52.538;13.820;2023-11-21T05:11:59;4.40;99.90
44843;DHT22;31884;52.538;13.820;2023-11-21T05:14:25;4.40;99.90
44843;DHT22;31884;52.538;13.820;2023-11-21T05:16:50;4.40;99.90
44843;DHT22;31884;52.538;13.820;2023-11-21T05:19:17;4.40;99.90
44843;DHT22;31884;52.538;13.820;2023-11-21T05:21:42;4.40;99.90
44843;DHT22;31884;52.538;13.820;2023-11-21T05:24:08;4.50;99.90
44843;DHT22;31884;52.538;13.820;2023-11-21T05:26:33;4.40;99.90
44843;DHT22;31884;52.538;13.820;2023-11-21T05:28:59;4.40;99.90
44843;DHT22;31884;52.538;13.820;2023-11-21T05:31:24;4.40;99.90
44843;DHT22;31884;52.538;13.820;2023-11-21T05:33:50;4.40;99.90
44843;DHT22;31884;52.538;13.820;2023-11-21T05:36:15;4.40;99.90
44843;DHT22;31884;52.538;13.820;2023-11-21T05:38:41;4.40;99.90
44843;DHT22;31884;52.538;13.820;2023-11-21T05:41:07;4.50;99.90
44843;DHT22;31884;52.538;13.820;2023-11-21T05:43:33;4.50;99.90
44843;DHT22;31884;52.538;13.820;2023-11-21T05:46:01;4.50;99.90
44843;DHT22;31884;52.538;13.820;2023-11-21T05:48:26;4.50;99.90
44843;DHT22;31884;52.538;13.820;2023-11-21T05:50:52;4.50;99.90
44843;DHT22;31884;52.538;13.820;2023-11-21T05:53:17;4.50;99.90
44843;DHT22;31884;52.538;13.820;2023-11-21T05:55:43;4.50;99.90
44843;DHT22;31884;52.538;13.820;2023-11-21T05:58:08;4.60;99.90
44843;DHT22;31884;52.538;13.820;2023-11-21T06:00:34;4.60;99.90
44843;DHT22;31884;52.538;13.820;2023-11-21T06:03:00;4.60;99.90
44843;DHT22;31884;52.538;13.820;2023-11-21T06:05:26;4.60;99.90
44843;DHT22;31884;52.538;13.820;2023-11-21T06:07:52;4.60;99.90
44843;DHT22;31884;52.538;13.820;2023-11-21T06:10:20;4.60;99.90
44843;DHT22;31884;52.538;13.820;2023-11-21T06:12:46;4.60;99.90
44843;DHT22;31884;52.538;13.820;2023-11-21T06:15:12;4.60;99.90
44843;DHT22;31884;52.538;13.820;2023-11-21T06:17:42;4.60;99.90
44843;DHT22;31884;52.538;13.820;2023-11-21T06:20:09;4.60;99.90
44843;DHT22;31884;52.538;13.820;2023-11-21T06:22:43;4.60;99.90
44843;DHT22;31884;52.538;13.820;2023-11-21T06:25:10;4.60;99.90
44843;DHT22;31884;52.538;13.820;2023-11-21T06:27:39;4.60;99.90
44843;DHT22;31884;52.538;13.820;2023-11-21T06:30:05;4.50;99.90
44843;DHT22;31884;52.538;13.820;2023-11-21T06:32:32;4.60;99.90
44843;DHT22;31884;52.538;13.820;2023-11-21T06:34:57;4.60;99.90
44843;DHT22;31884;52.538;13.820;2023-11-21T06:37:27;4.60;99.90
44843;DHT22;31884;52.538;13.820;2023-11-21T06:39:53;4.60;99.90
44843;DHT22;31884;52.538;13.820;2023-11-21T06:42:19;4.60;99.90
44843;DHT22;31884;52.538;13.820;2023-11-21T06:44:48;4.60;99.90
44843;DHT22;31884;52.538;13.820;2023-11-21T06:47:14;4.60;99.90
44843;DHT22;31884;52.538;13.820;2023-11-21T06:49:42;4.60;99.90
44843;DHT22;31884;52.538;13.820;2023-11-21T06:52:08;4.60;99.90
44843;DHT22;31884;52.538;13.820;2023-11-21T06:54:33;4.50;99.90
44843;DHT22;31884;52.538;13.820;2023-11-21T06:57:00;4.50;99.90
44843;DHT22;31884;52.538;13.820;2023-11-21T06:59:25;4.50;99.90
44843;DHT22;31884;52.538;13.820;2023-11-21T07:01:51;4.50;99.90
44843;DHT22;31884;52.538;13.820;2023-11-21T07:04:17;4.50;99.90
44843;DHT22;31884;52.538;13.820;2023-11-21T07:06:43;4.50;99.90
44843;DHT22;31884;52.538;13.820;2023-11-21T07:09:09;4.50;99.90
44843;DHT22;31884;52.538;13.820;2023-11-21T07:11:37;4.50;99.90
44843;DHT22;31884;52.538;13.820;2023-11-21T07:14:03;4.50;99.90
44843;DHT22;31884;52.538;13.820;2023-11-21T07:16:36;4.50;99.90
44843;DHT22;31884;52.538;13.820;2023-11-21T07:19:04;4.40;99.90
44843;DHT22;31884;52.538;13.820;2023-11-21T07:21:34;4.40;99.90
44843;DHT22;31884;52.538;13.820;2023-11-21T07:24:00;4.50;99.90
44843;DHT22;31884;52.538;13.820;2023-11-21T07:26:29;4.40;99.90
44843;DHT22;31884;52.538;13.820;2023-11-21T07:28:54;4.50;99.90
44843;DHT22;31884;52.538;13.820;2023-11-21T07:31:21;4.50;99.90
44843;DHT22;31884;52.538;13.820;2023-11-21T07:33:47;4.40;99.90
44843;DHT22;31884;52.538;13.820;2023-11-21T07:36:13;4.40;99.90
44843;DHT22;31884;52.538;13.820;2023-11-21T07:38:39;4.50;99.90
44843;DHT22;31884;52.538;13.820;2023-11-21T07:41:05;4.50;99.90
44843;DHT22;31884;52.538;13.820;2023-11-21T07:43:34;4.50;99.90
44843;DHT22;31884;52.538;13.820;2023-11-21T07:46:04;4.40;99.90
44843;DHT22;31884;52.538;13.820;2023-11-21T07:48:30;4.50;99.90
44843;DHT22;31884;52.538;13.820;2023-11-21T07:50:57;4.50;99.90
44843;DHT22;31884;52.538;13.820;2023-11-21T07:53:24;4.50;99.90
44843;DHT22;31884;52.538;13.820;2023-11-21T07:55:51;4.50;99.90
44843;DHT22;31884;52.538;13.820;2023-11-21T07:58:16;4.50;99.90
44843;DHT22;31884;52.538;13.820;2023-11-21T08:00:42;4.40;99.90
44843;DHT22;31884;52.538;13.820;2023-11-21T08:03:07;4.50;99.90
44843;DHT22;31884;52.538;13.820;2023-11-21T08:05:33;4.50;99.90
44843;DHT22;31884;52.538;13.820;2023-11-21T08:07:58;4.40;99.90
44843;DHT22;31884;52.538;13.820;2023-11-21T08:10:24;4.40;99.90
44843;DHT22;31884;52.538;13.820;2023-11-21T08:12:50;4.40;99.90
44843;DHT22;31884;52.538;13.820;2023-11-21T08:15:16;4.40;99.90
44843;DHT22;31884;52.538;13.820;2023-11-21T08:17:41;4.40;99.90
44843;DHT22;31884;52.538;13.820;2023-11-21T08:20:07;4.40;99.90
44843;DHT22;31884;52.538;13.820;2023-11-21T08:22:35;4.40;99.90
44843;DHT22;31884;52.538;13.820;2023-11-21T08:25:01;4.40;99.90
44843;DHT22;31884;52.538;13.820;2023-11-21T08:27:29;4.40;99.90
44843;DHT22;31884;52.538;13.820;2023-11-21T08:29:54;4.40;99.90
44843;DHT22;31884;52.538;13.820;2023-11-21T08:32:21;4.50;99.90
44843;DHT22;31884;52.538;13.820;2023-11-21T08:34:47;4.50;99.90
44843;DHT22;31884;52.538;13.820;2023-11-21T08:37:16;4.50;99.90
44843;DHT22;31884;52.538;13.820;2023-11-21T08:39:43;4.60;99.90
44843;DHT22;31884;52.538;13.820;2023-11-21T08:42:08;4.50;99.90
44843;DHT22;31884;52.538;13.820;2023-11-21T08:44:34;4.60;99.90
44843;DHT22;31884;52.538;13.820;2023-11-21T08:46:59;4.60;99.90
44843;DHT22;31884;52.538;13.820;2023-11-21T08:49:25;4.60;99.90
44843;DHT22;31884;52.538;13.820;2023-11-21T08:51:53;4.60;99.90
44843;DHT22;31884;52.538;13.820;2023-11-21T08:54:20;4.50;99.90
44843;DHT22;31884;52.538;13.820;2023-11-21T08:56:46;4.50;99.90
44843;DHT22;31884;52.538;13.820;2023-11-21T08:59:12;4.50;99.90
44843;DHT22;31884;52.538;13.820;2023-11-21T09:01:40;4.50;99.90
44843;DHT22;31884;52.538;13.820;2023-11-21T09:04:06;4.50;99.90
44843;DHT22;31884;52.538;13.820;2023-11-21T09:06:31;4.50;99.90
44843;DHT22;31884;52.538;13.820;2023-11-21T09:08:57;4.60;99.90
44843;DHT22;31884;52.538;13.820;2023-11-21T09:11:22;4.60;99.90
44843;DHT22;31884;52.538;13.820;2023-11-21T09:13:50;4.60;99.90
44843;DHT22;31884;52.538;13.820;2023-11-21T09:16:17;4.60;99.90
44843;DHT22;31884;52.538;13.820;2023-11-21T09:18:42;4.50;99.90
44843;DHT22;31884;52.538;13.820;2023-11-21T09:21:08;4.50;99.90
44843;DHT22;31884;52.538;13.820;2023-11-21T09:23:35;4.40;99.90
44843;DHT22;31884;52.538;13.820;2023-11-21T09:26:00;4.40;99.90
44843;DHT22;31884;52.538;13.820;2023-11-21T09:28:27;4.40;99.90
44843;DHT22;31884;52.538;13.820;2023-11-21T09:30:53;4.40;99.90
44843;DHT22;31884;52.538;13.820;2023-11-21T09:33:19;4.40;99.90
44843;DHT22;31884;52.538;13.820;2023-11-21T09:35:44;4.30;99.90
44843;DHT22;31884;52.538;13.820;2023-11-21T09:38:10;4.30;99.90
44843;DHT22;31884;52.538;13.820;2023-11-21T09:40:37;4.30;99.90
44843;DHT22;31884;52.538;13.820;2023-11-21T09:43:11;4.20;99.90
44843;DHT22;31884;52.538;13.820;2023-11-21T09:45:45;4.20;99.90
44843;DHT22;31884;52.538;13.820;2023-11-21T09:48:13;4.20;99.90
44843;DHT22;31884;52.538;13.820;2023-11-21T09:50:41;4.20;99.90
44843;DHT22;31884;52.538;13.820;2023-11-21T09:53:15;4.20;99.90
44843;DHT22;31884;52.538;13.820;2023-11-21T09:55:44;4.10;99.90
44843;DHT22;31884;52.538;13.820;2023-11-21T09:58:11;4.10;99.90
44843;DHT22;31884;52.538;13.820;2023-11-21T10:00:44;4.20;99.90
44843;DHT22;31884;52.538;13.820;2023-11-21T10:03:11;4.20;99.90
44843;DHT22;31884;52.538;13.820;2023-11-21T10:05:38;4.30;99.90
44843;DHT22;31884;52.538;13.820;2023-11-21T10:08:07;4.30;99.90
44843;DHT22;31884;52.538;13.820;2023-11-21T10:10:35;4.30;99.90
44843;DHT22;31884;52.538;13.820;2023-11-21T10:13:03;4.30;99.90
44843;DHT22;31884;52.538;13.820;2023-11-21T10:15:33;4.30;99.90
44843;DHT22;31884;52.538;13.820;2023-11-21T10:18:01;4.30;99.90
44843;DHT22;31884;52.538;13.820;2023-11-21T10:20:28;4.20;99.90
44843;DHT22;31884;52.538;13.820;2023-11-21T10:22:54;4.20;99.90
44843;DHT22;31884;52.538;13.820;2023-11-21T10:25:22;4.20;99.90
44843;DHT22;31884;52.538;13.820;2023-11-21T10:27:49;4.10;99.90
44843;DHT22;31884;52.538;13.820;2023-11-21T10:30:17;4.10;99.90
44843;DHT22;31884;52.538;13.820;2023-11-21T10:32:43;4.00;99.90
44843;DHT22;31884;52.538;13.820;2023-11-21T10:35:09;4.00;99.90
44843;DHT22;31884;52.538;13.820;2023-11-21T10:37:37;4.00;99.90
44843;DHT22;31884;52.538;13.820;2023-11-21T10:40:09;3.90;99.90
44843;DHT22;31884;52.538;13.820;2023-11-21T10:42:41;3.90;99.90
44843;DHT22;31884;52.538;13.820;2023-11-21T10:45:08;3.90;99.90
44843;DHT22;31884;52.538;13.820;2023-11-21T10:47:41;3.90;99.90
44843;DHT22;31884;52.538;13.820;2023-11-21T10:50:07;3.90;99.90
44843;DHT22;31884;52.538;13.820;2023-11-21T10:52:37;3.90;99.90
44843;DHT22;31884;52.538;13.820;2023-11-21T10:55:16;3.90;99.90
44843;DHT22;31884;52.538;13.820;2023-11-21T10:57:42;3.90;99.90
44843;DHT22;31884;52.538;13.820;2023-11-21T11:00:08;3.90;99.90
44843;DHT22;31884;52.538;13.820;2023-11-21T11:02:38;4.00;99.90
44843;DHT22;31884;52.538;13.820;2023-11-21T11:05:05;4.00;99.90
44843;DHT22;31884;52.538;13.820;2023-11-21T11:07:32;4.00;99.90
44843;DHT22;31884;52.538;13.820;2023-11-21T11:09:59;4.00;99.90
44843;DHT22;31884;52.538;13.820;2023-11-21T11:12:25;4.00;99.90
44843;DHT22;31884;52.538;13.820;2023-11-21T11:14:51;4.00;99.90
44843;DHT22;31884;52.538;13.820;2023-11-21T11:17:19;3.90;99.90
44843;DHT22;31884;52.538;13.820;2023-11-21T11:19:46;3.90;99.90
44843;DHT22;31884;52.538;13.820;2023-11-21T11:22:37;3.90;99.90
44843;DHT22;31884;52.538;13.820;2023-11-21T11:28:08;3.90;99.90
44843;DHT22;31884;52.538;13.820;2023-11-21T11:30:39;3.90;99.90
44843;DHT22;31884;52.538;13.820;2023-11-21T11:36:26;3.90;99.90
44843;DHT22;31884;52.538;13.820;2023-11-21T11:38:52;3.90;99.90
44843;DHT22;31884;52.538;13.820;2023-11-21T11:41:30;3.90;99.90
44843;DHT22;31884;52.538;13.820;2023-11-21T11:43:58;3.90;99.90
44843;DHT22;31884;52.538;13.820;2023-11-21T11:46:41;3.90;99.90
44843;DHT22;31884;52.538;13.820;2023-11-21T11:49:07;3.90;99.90
44843;DHT22;31884;52.538;13.820;2023-11-21T11:51:33;3.90;99.90
44843;DHT22;31884;52.538;13.820;2023-11-21T11:54:01;3.90;99.90
44843;DHT22;31884;52.538;13.820;2023-11-21T11:58:56;3.90;99.90
44843;DHT22;31884;52.538;13.820;2023-11-21T12:01:27;3.90;99.90
44843;DHT22;31884;52.538;13.820;2023-11-21T12:04:23;3.90;99.90
44843;DHT22;31884;52.538;13.820;2023-11-21T12:06:51;4.00;99.90
44843;DHT22;31884;52.538;13.820;2023-11-21T12:09:22;4.10;99.90
44843;DHT22;31884;52.538;13.820;2023-11-21T12:11:48;4.20;99.90
44843;DHT22;31884;52.538;13.820;2023-11-21T12:14:15;4.20;99.90
44843;DHT22;31884;52.538;13.820;2023-11-21T12:16:41;4.20;99.90
44843;DHT22;31884;52.538;13.820;2023-11-21T12:19:08;4.20;99.90
44843;DHT22;31884;52.538;13.820;2023-11-21T12:21:33;4.10;99.90
44843;DHT22;31884;52.538;13.820;2023-11-21T12:23:59;4.10;99.90
44843;DHT22;31884;52.538;13.820;2023-11-21T12:26:26;4.20;99.90
44843;DHT22;31884;52.538;13.820;2023-11-21T12:28:53;4.10;99.90
44843;DHT22;31884;52.538;13.820;2023-11-21T12:31:21;4.10;99.90
44843;DHT22;31884;52.538;13.820;2023-11-21T12:33:47;4.10;99.90
44843;DHT22;31884;52.538;13.820;2023-11-21T12:36:12;4.00;99.90
44843;DHT22;31884;52.538;13.820;2023-11-21T12:38:38;4.00;99.90
44843;DHT22;31884;52.538;13.820;2023-11-21T12:41:04;4.00;99.90
44843;DHT22;31884;52.538;13.820;2023-11-21T12:43:31;4.00;99.90
44843;DHT22;31884;52.538;13.820;2023-11-21T12:46:08;3.90;99.90
44843;DHT22;31884;52.538;13.820;2023-11-21T12:48:42;3.80;99.90
44843;DHT22;31884;52.538;13.820;2023-11-21T12:51:09;3.80;99.90
44843;DHT22;31884;52.538;13.820;2023-11-21T12:53:35;3.70;99.90
44843;DHT22;31884;52.538;13.820;2023-11-21T12:56:09;3.70;99.90
44843;DHT22;31884;52.538;13.820;2023-11-21T12:58:36;3.70;99.90
44843;DHT22;31884;52.538;13.820;2023-11-21T13:01:04;3.60;99.90
44843;DHT22;31884;52.538;13.820;2023-11-21T13:03:30;3.60;99.90
44843;DHT22;31884;52.538;13.820;2023-11-21T13:05:58;3.50;99.90
44843;DHT22;31884;52.538;13.820;2023-11-21T13:08:25;3.50;99.90
44843;DHT22;31884;52.538;13.820;2023-11-21T13:10:52;3.50;99.90
44843;DHT22;31884;52.538;13.820;2023-11-21T13:13:19;3.50;99.90
44843;DHT22;31884;52.538;13.820;2023-11-21T13:15:55;3.50;99.90
44843;DHT22;31884;52.538;13.820;2023-11-21T13:18:22;3.50;99.90
44843;DHT22;31884;52.538;13.820;2023-11-21T13:20:49;3.40;99.90
44843;DHT22;31884;52.538;13.820;2023-11-21T13:23:15;3.40;99.90
44843;DHT22;31884;52.538;13.820;2023-11-21T13:25:43;3.40;99.90
44843;DHT22;31884;52.538;13.820;2023-11-21T13:28:11;3.50;99.90
44843;DHT22;31884;52.538;13.820;2023-11-21T13:30:38;3.50;99.90
44843;DHT22;31884;52.538;13.820;2023-11-21T13:33:06;3.40;99.90
44843;DHT22;31884;52.538;13.820;2023-11-21T13:35:32;3.40;99.90
44843;DHT22;31884;52.538;13.820;2023-11-21T13:38:26;3.40;99.90
44843;DHT22;31884;52.538;13.820;2023-11-21T13:40:57;3.30;99.90
44843;DHT22;31884;52.538;13.820;2023-11-21T13:43:24;3.30;99.90
44843;DHT22;31884;52.538;13.820;2023-11-21T13:45:52;3.30;99.90
44843;DHT22;31884;52.538;13.820;2023-11-21T13:48:28;3.30;99.90
44843;DHT22;31884;52.538;13.820;2023-11-21T13:51:03;3.30;99.90
44843;DHT22;31884;52.538;13.820;2023-11-21T13:53:38;3.30;99.90
44843;DHT22;31884;52.538;13.820;2023-11-21T13:56:07;3.30;99.90
44843;DHT22;31884;52.538;13.820;2023-11-21T13:58:32;3.30;99.90
44843;DHT22;31884;52.538;13.820;2023-11-21T14:01:10;3.30;99.90
44843;DHT22;31884;52.538;13.820;2023-11-21T14:03:54;3.20;99.90
44843;DHT22;31884;52.538;13.820;2023-11-21T14:06:25;3.20;99.90
44843;DHT22;31884;52.538;13.820;2023-11-21T14:08:58;3.20;99.90
44843;DHT22;31884;52.538;13.820;2023-11-21T14:11:24;3.20;99.90
44843;DHT22;31884;52.538;13.820;2023-11-21T14:13:50;3.10;99.90
44843;DHT22;31884;52.538;13.820;2023-11-21T14:16:15;3.10;99.90
44843;DHT22;31884;52.538;13.820;2023-11-21T14:18:42;3.00;99.90
44843;DHT22;31884;52.538;13.820;2023-11-21T14:21:18;3.00;99.90
44843;DHT22;31884;52.538;13.820;2023-11-21T14:23:44;2.90;99.90
44843;DHT22;31884;52.538;13.820;2023-11-21T14:26:11;2.90;99.90
44843;DHT22;31884;52.538;13.820;2023-11-21T14:28:39;2.90;99.90
44843;DHT22;31884;52.538;13.820;2023-11-21T14:31:05;2.90;99.90
44843;DHT22;31884;52.538;13.820;2023-11-21T14:33:30;2.90;99.90
44843;DHT22;31884;52.538;13.820;2023-11-21T14:35:56;2.80;99.90
44843;DHT22;31884;52.538;13.820;2023-11-21T14:38:23;2.80;99.90
44843;DHT22;31884;52.538;13.820;2023-11-21T14:40:48;2.80;99.90
44843;DHT22;31884;52.538;13.820;2023-11-21T14:43:14;2.70;99.90
44843;DHT22;31884;52.538;13.820;2023-11-21T14:45:41;2.70;99.90
44843;DHT22;31884;52.538;13.820;2023-11-21T14:48:06;2.70;99.90
44843;DHT22;31884;52.538;13.820;2023-11-21T14:50:34;2.70;99.90
44843;DHT22;31884;52.538;13.820;2023-11-21T14:53:34;2.60;99.90
44843;DHT22;31884;52.538;13.820;2023-11-21T14:56:21;2.60;99.90
44843;DHT22;31884;52.538;13.820;2023-11-21T14:58:58;2.60;99.90
44843;DHT22;31884;52.538;13.820;2023-11-21T15:01:31;2.50;99.90
44843;DHT22;31884;52.538;13.820;2023-11-21T15:04:16;2.50;99.90
44843;DHT22;31884;52.538;13.820;2023-11-21T15:06:53;2.50;99.90
44843;DHT22;31884;52.538;13.820;2023-11-21T15:09:21;2.40;99.90
44843;DHT22;31884;52.538;13.820;2023-11-21T15:12:02;2.30;99.90
44843;DHT22;31884;52.538;13.820;2023-11-21T15:14:47;2.20;99.90
44843;DHT22;31884;52.538;13.820;2023-11-21T15:17:15;2.20;99.90
44843;DHT22;31884;52.538;13.820;2023-11-21T15:19:56;2.10;99.90
44843;DHT22;31884;52.538;13.820;2023-11-21T15:22:21;2.10;99.90
44843;DHT22;31884;52.538;13.820;2023-11-21T15:24:48;2.10;99.90
44843;DHT22;31884;52.538;13.820;2023-11-21T15:27:15;2.00;99.90
44843;DHT22;31884;52.538;13.820;2023-11-21T15:29:42;2.00;99.90
44843;DHT22;31884;52.538;13.820;2023-11-21T15:32:08;2.00;99.90
44843;DHT22;31884;52.538;13.820;2023-11-21T15:34:34;2.00;99.90
44843;DHT22;31884;52.538;13.820;2023-11-21T15:37:00;2.00;99.90
44843;DHT22;31884;52.538;13.820;2023-11-21T15:39:26;2.00;99.90
44843;DHT22;31884;52.538;13.820;2023-11-21T15:41:55;2.00;99.90